METAR Data
IDs: Format: Raw Decoded Include TAF

Data at: 0927 UTC 17 Nov 2018

KPAE 170925Z AUTO 31004KT 10SM SCT016 06/04 A3030 RMK AO2 T00560044

KPAE 170537Z 1706/1806 VRB03KT P6SM MIFG SCT022
  FM171200 VRB03KT 6SM MIFG FEW007
  FM171800 02006KT P6SM SKC
  FM172000 35008KT P6SM SKC
  FM180100 02005KT P6SM SKC


KAWO 170924Z AUTO 00000KT 1/4SM FG OVC001 00/00 A3032 RMK AO2 FZRANO
No TAF found for KAWO

KBFI 170853Z 01004KT 10SM FEW030 09/05 A3029 RMK AO2 SLP257 T00890050 53006

KBFI 170537Z 1706/1806 35006KT P6SM BKN028
  FM170900 01004KT P6SM FEW028
  FM171200 00000KT P6SM FEW013
  FM171800 35009KT P6SM SKC WS020/09015KT


KRNT 170853Z AUTO 33010KT 10SM CLR 09/06 A3029 RMK AO2 SLP260 T00890061 53007
No TAF found for KRNT

KSEA 170853Z 02009KT 10SM FEW030 08/06 A3028 RMK AO2 SLP260 T00780056 53007

KSEA 170903Z 1709/1812 01011KT P6SM FEW030
  FM171200 03010KT P6SM FEW009 WS020/09015KT
  FM171800 02014KT P6SM SKC WS020/09015KT
  TEMPO 1719/1723 01013G23KT
  FM180100 03010KT P6SM SKC